LMML/MLA METAR and TAF weather

Enter ICAO airport designator
Station Type Date Time Source
LMML METAR 2022/01/18 08:15 UTC NOAA

LMML 180815Z 32007KT 9999 BKN036 12/09 Q1029 NOSIG


Station Type Date Time Source
LMML Decoded METAR 2022/01/18 08:15 UTC NOAA

Luqa, Malta (LMML) 35-51N 014-29E 91M
Jan 18, 2022 - 03:15 AM EST / 2022.01.18 0815 UTC
Wind: from the NW (320 degrees) at 8 MPH (7 KT):0
Visibility: greater than 7 mile(s):0
Sky conditions: mostly cloudy
Temperature: 53 F (12 C)
Dew Point: 48 F (9 C)
Relative Humidity: 81%
Pressure (altimeter): 30.39 in. Hg (1029 hPa)
ob: LMML 180815Z 32007KT 9999 BKN036 12/09 Q1029 NOSIG
cycle: 8

Station Type Date Time Source
LMML TAF 2022/01/18 06:50 UTC NOAA

TAF LMML 180500Z 1806/1906 30008KT 9999 FEW025

Example: see airport list